London, California
Current Conditions -  °F | °C
As of 5:15 AM on Saturday 22 Nov 2014 (Local Time) from KVIS Reporting Station
Clear Clear  
Wind Chill: 43°   Ceiling: Unl
Heat Index: 43°   Visibility: 1.5mi
Dew Point: 37°   Wind: 3mph
Humidity: 81%   Direction: 120°ESE
Pressure: 30.18"   Gusts: NA
Location:  36.5216°N, 119.386°W
Report Text: KVIS 221315Z 12003KT 1 1/2SM CLR 06/03 A3018 RMK AO1
Loading
Personal Weather Stations






























Interactive Weather Map New forecast layout! Learn more

10-Day Weather Forecast

Advertisements
Track Severe Weather on mobile